Time;durP1;ratioP1;P1;durP2;ratioP2;P2;SDS_P1;SDS_P2;PMS_P1;PMS_P2;Temp;Humidity;BMP_temperature;BMP_pressure;BME280_temperature;BME280_humidity;BME280_pressure;Samples;Min_cycle;Max_cycle;Signal;HPM_P1;HPM_P2
2020/12/15 00:00:27;;;;;;;3.80;2.70;;;7.00;65.60;;;7.17;59.50;97110.34;5083950;28;20364;-47
2020/12/15 00:02:55;;;;;;;3.33;2.60;;;7.10;65.80;;;7.21;59.28;97112.56;5083778;28;20044;-46
2020/12/15 00:05:22;;;;;;;3.03;2.43;;;7.20;65.60;;;7.26;58.97;97112.91;5083169;28;20047;-45
2020/12/15 00:07:50;;;;;;;3.93;2.90;;;7.20;65.10;;;7.31;58.76;97115.13;5083695;28;20049;-46
2020/12/15 00:10:17;;;;;;;4.27;2.60;;;7.30;64.80;;;7.38;58.76;97108.19;5083471;28;20036;-47
2020/12/15 00:12:44;;;;;;;4.80;2.50;;;7.40;64.40;;;7.43;58.79;97119.16;5083550;28;20048;-47
2020/12/15 00:15:12;;;;;;;3.03;2.53;;;7.50;64.50;;;7.48;58.65;97119.53;5083090;28;20062;-46
2020/12/15 00:17:39;;;;;;;3.80;2.60;;;7.50;64.30;;;7.52;58.72;97124.53;5083026;28;20105;-44
2020/12/15 00:20:07;;;;;;;3.70;2.43;;;7.60;64.00;;;7.54;58.43;97127.84;5083044;28;20221;-45
2020/12/15 00:22:35;;;;;;;4.23;2.77;;;7.60;64.10;;;7.56;58.25;97110.81;5083155;28;20055;-46
2020/12/15 00:25:05;;;;;;;4.07;3.00;;;7.60;63.90;;;7.59;57.96;97118.44;5081814;28;20378;-45
2020/12/15 00:27:32;;;;;;;4.43;2.60;;;7.60;63.30;;;7.61;57.98;97123.59;5083465;28;20060;-45
2020/12/15 00:29:59;;;;;;;3.60;2.00;;;7.60;63.40;;;7.62;56.85;97118.16;5083178;28;20052;-47
2020/12/15 00:32:27;;;;;;;5.87;2.07;;;7.60;61.30;;;7.65;57.28;97123.13;5082966;28;20256;-46
2020/12/15 00:34:55;;;;;;;5.57;2.43;;;7.60;62.70;;;7.68;57.51;97119.34;5082565;28;20063;-45
2020/12/15 00:37:22;;;;;;;3.47;2.70;;;7.70;62.80;;;7.69;57.77;97124.47;5082954;28;20051;-45
2020/12/15 00:39:50;;;;;;;4.53;2.33;;;7.70;62.30;;;7.71;57.45;97126.97;5083151;28;20248;-46
2020/12/15 00:42:17;;;;;;;2.90;2.07;;;7.70;62.30;;;7.73;57.44;97124.16;5082206;28;20329;-46
2020/12/15 00:44:45;;;;;;;3.47;2.37;;;7.70;62.30;;;7.74;57.22;97117.91;5082456;28;20051;-47
2020/12/15 00:47:12;;;;;;;3.70;2.40;;;7.70;62.00;;;7.74;56.59;97120.53;5082753;28;20343;-45
2020/12/15 00:49:40;;;;;;;3.67;2.40;;;7.70;62.10;;;7.75;56.63;97124.84;5082726;28;20048;-45
2020/12/15 00:52:08;;;;;;;3.67;2.80;;;7.70;62.10;;;7.74;56.13;97133.78;5081557;28;20058;-46
2020/12/15 00:54:35;;;;;;;3.20;2.20;;;7.70;61.70;;;7.76;56.38;97129.16;5081441;28;20062;-45
2020/12/15 00:57:03;;;;;;;5.20;2.60;;;7.70;61.80;;;7.77;56.25;97123.69;5080974;28;20075;-48
2020/12/15 00:59:30;;;;;;;3.83;2.53;;;7.70;60.90;;;7.75;55.94;97120.38;5082610;28;20048;-45
2020/12/15 01:02:00;;;;;;;3.60;2.40;;;7.70;61.90;;;7.75;55.89;97112.41;5097955;28;20248;-46
2020/12/15 01:04:29;;;;;;;4.27;2.70;;;7.70;62.10;;;7.73;56.79;97117.03;5081217;28;20056;-45
2020/12/15 01:06:59;;;;;;;5.93;2.30;;;7.70;62.30;;;7.73;56.07;97110.91;5080197;28;20256;-49
2020/12/15 01:09:27;;;;;;;3.87;2.43;;;7.70;62.00;;;7.74;56.66;97115.25;5098093;28;20352;-48
2020/12/15 01:11:56;;;;;;;5.23;3.10;;;7.70;62.20;;;7.73;56.83;97106.44;5080900;28;20062;-49
2020/12/15 01:14:23;;;;;;;4.27;2.63;;;7.70;62.40;;;7.73;56.78;97121.53;5081046;28;20052;-45
2020/12/15 01:16:54;;;;;;;5.10;3.20;;;7.60;62.80;;;7.71;57.13;97121.66;5080366;28;20145;-46
2020/12/15 01:19:22;;;;;;;6.00;3.50;;;7.70;63.30;;;7.69;56.66;97129.75;5082404;28;20048;-48
2020/12/15 01:21:50;;;;;;;4.33;2.97;;;7.60;63.40;;;7.69;57.32;97135.06;5097596;28;20070;-44
2020/12/15 01:24:25;;;;;;;4.47;3.40;;;7.50;64.00;;;7.65;57.71;97124.94;5097875;28;20048;-45
2020/12/15 01:27:12;;;;;;;4.80;3.77;;;7.50;64.30;;;7.64;57.49;97129.41;5081963;28;20398;-47
2020/12/15 01:29:55;;;;;;;4.57;3.17;;;7.50;64.70;;;7.63;58.02;97129.56;5097876;28;20348;-46
2020/12/15 01:32:38;;;;;;;3.88;3.00;;;7.50;64.70;;;7.61;58.11;97126.25;5080697;28;20048;-45
2020/12/15 01:35:07;;;;;;;5.30;3.30;;;7.40;64.80;;;7.56;58.15;97113.47;5096802;28;20083;-46
2020/12/15 01:37:35;;;;;;;4.87;3.67;;;7.40;65.30;;;7.53;58.25;97118.25;5080402;28;20052;-49
2020/12/15 01:40:05;;;;;;;6.93;4.20;;;7.30;65.70;;;7.50;58.63;97129.97;5097333;28;20048;-44
2020/12/15 01:42:34;;;;;;;6.13;3.80;;;7.30;66.10;;;7.47;58.59;97125.00;5080587;28;20048;-50
2020/12/15 01:45:01;;;;;;;6.63;3.87;;;7.20;67.00;;;7.44;58.59;97135.88;5063688;28;20056;-44
2020/12/15 01:47:33;;;;;;;5.03;3.87;;;7.20;66.30;;;7.42;58.63;97143.16;5080752;28;20070;-45
2020/12/15 01:50:01;;;;;;;5.20;3.80;;;7.20;66.50;;;7.39;58.72;97131.06;5097250;28;20348;-45
2020/12/15 01:52:32;;;;;;;6.13;4.37;;;7.20;66.20;;;7.40;58.34;97123.94;5081227;28;20079;-44
2020/12/15 01:55:00;;;;;;;10.73;6.47;;;7.20;66.20;;;7.41;58.81;97115.03;5081466;28;20048;-48
2020/12/15 01:57:51;;;;;;;7.00;5.10;;;7.20;65.80;;;7.40;58.70;97119.47;5081843;28;20044;-46
2020/12/15 02:00:33;;;;;;;7.50;4.37;;;7.20;65.70;;;7.34;58.93;97120.09;5065874;28;20049;-45
2020/12/15 02:03:14;;;;;;;4.90;3.83;;;7.10;66.20;;;7.32;58.77;97116.75;5081088;28;20048;-47
2020/12/15 02:06:01;;;;;;;6.63;4.47;;;7.10;66.50;;;7.33;58.73;97120.22;5083569;28;20051;-46
2020/12/15 02:08:38;;;;;;;5.50;3.73;;;7.10;66.50;;;7.33;58.93;97112.28;5080287;28;20062;-47
2020/12/15 02:11:06;;;;;;;8.17;4.70;;;7.10;66.50;;;7.34;58.66;97120.09;5078173;28;20052;-45
2020/12/15 02:13:37;;;;;;;8.37;4.73;;;7.20;66.80;;;7.35;59.45;97120.91;5080359;28;20386;-45
2020/12/15 02:16:11;;;;;;;5.87;4.50;;;7.20;66.90;;;7.37;58.77;97134.84;5079444;28;20048;-46
2020/12/15 02:18:42;;;;;;;5.70;3.73;;;7.20;66.70;;;7.35;58.28;97131.50;5080816;28;20059;-45
2020/12/15 02:21:11;;;;;;;4.67;3.07;;;7.20;66.20;;;7.38;59.16;97147.09;5084061;28;20048;-48
2020/12/15 02:23:55;;;;;;;4.70;3.25;;;7.20;66.00;;;7.40;58.75;97148.59;5084118;28;20052;-45
2020/12/15 02:26:40;;;;;;;4.77;3.00;;;7.20;66.00;;;7.41;58.93;97155.56;5083539;28;20056;-45
2020/12/15 02:29:09;;;;;;;6.40;3.57;;;7.30;66.10;;;7.42;58.83;97159.03;5067970;28;20055;-48
2020/12/15 02:31:37;;;;;;;5.37;3.70;;;7.30;66.30;;;7.44;58.96;97155.28;5083838;28;20078;-47
2020/12/15 02:34:06;;;;;;;5.27;3.77;;;7.30;66.40;;;7.41;58.29;97144.97;5083602;28;20057;-45
2020/12/15 02:36:34;;;;;;;5.87;3.67;;;7.20;65.90;;;7.41;59.07;97154.75;5083812;28;20052;-47
2020/12/15 02:39:17;;;;;;;4.43;3.67;;;7.20;66.40;;;7.41;58.71;97144.16;5083955;28;20075;-48
2020/12/15 02:42:14;;;;;;;3.90;2.77;;;7.20;66.40;;;7.40;58.35;97131.88;5083685;28;20059;-45
2020/12/15 02:44:42;;;;;;;3.57;2.77;;;7.30;66.00;;;7.38;58.62;97113.50;5083484;28;20052;-44
2020/12/15 02:47:17;;;;;;;6.80;2.53;;;7.30;66.10;;;7.41;58.82;97104.44;5083194;28;20055;-46
2020/12/15 02:49:46;;;;;;;4.80;2.53;;;7.30;65.80;;;7.46;59.40;97107.44;5083763;28;20063;-47
2020/12/15 02:52:22;;;;;;;4.37;2.67;;;7.30;66.80;;;7.47;59.25;97098.50;5083809;28;20056;-45
2020/12/15 02:54:53;;;;;;;4.50;3.30;;;7.40;66.80;;;7.50;59.60;97087.59;5082821;28;20040;-46
2020/12/15 02:57:23;;;;;;;13.03;8.57;;;7.40;67.30;;;7.52;59.63;97087.44;5083381;28;20051;-44
2020/12/15 02:59:51;;;;;;;11.00;7.77;;;7.40;67.40;;;7.53;59.70;97075.88;5067116;28;20044;-46
2020/12/15 03:02:23;;;;;;;7.90;5.80;;;7.40;67.50;;;7.52;60.03;97071.53;5083591;28;20044;-45
2020/12/15 03:04:57;;;;;;;7.63;5.53;;;7.40;67.80;;;7.52;59.76;97076.84;5083166;28;20054;-45
2020/12/15 03:07:24;;;;;;;8.17;6.37;;;7.40;68.30;;;7.52;60.01;97080.31;5083101;28;20052;-45
2020/12/15 03:09:55;;;;;;;8.13;4.93;;;7.40;68.50;;;7.55;60.53;97092.44;5083122;28;20056;-49
2020/12/15 03:12:32;;;;;;;5.43;3.30;;;7.40;69.10;;;7.54;60.46;97109.28;5083554;28;20048;-44
2020/12/15 03:15:00;;;;;;;5.63;3.73;;;7.30;69.30;;;7.52;60.14;97098.03;5082627;28;20071;-44
2020/12/15 03:17:29;;;;;;;6.07;4.27;;;7.30;69.60;;;7.48;60.64;97087.75;5067130;28;20051;-46
2020/12/15 03:19:59;;;;;;;8.03;6.30;;;7.30;69.50;;;7.47;60.70;97079.97;5082842;28;20059;-46
2020/12/15 03:22:27;;;;;;;7.37;6.37;;;7.30;69.40;;;7.46;60.82;97062.41;5082981;28;20055;-45
2020/12/15 03:25:00;;;;;;;6.35;4.32;;;7.30;69.80;;;7.41;60.87;97047.00;5082851;28;20049;-47
2020/12/15 03:27:36;;;;;;;4.70;3.43;;;7.20;69.90;;;7.37;60.75;97035.03;5082828;28;20056;-45
2020/12/15 03:30:07;;;;;;;6.83;4.40;;;7.10;70.30;;;7.35;60.70;97028.22;5084096;28;20340;-44
2020/12/15 03:32:36;;;;;;;8.60;5.10;;;7.10;71.50;;;7.36;60.83;97040.50;5082612;28;20049;-44
2020/12/15 03:35:05;;;;;;;8.40;6.70;;;7.20;70.90;;;7.38;61.19;97054.41;5083720;28;20033;-46
2020/12/15 03:37:34;;;;;;;6.67;4.70;;;7.20;70.80;;;7.37;61.24;97072.13;5083022;28;20240;-47
2020/12/15 03:40:03;;;;;;;6.47;4.87;;;7.20;70.90;;;7.37;61.07;97089.84;5082551;28;20048;-45
2020/12/15 03:43:05;;;;;;;5.57;4.23;;;7.20;70.90;;;7.37;61.39;97079.25;5061622;28;20052;-44
2020/12/15 03:45:47;;;;;;;5.73;3.90;;;7.10;71.00;;;7.34;60.95;97085.66;5082306;28;20052;-47
2020/12/15 03:48:15;;;;;;;5.30;4.30;;;7.10;70.70;;;7.35;60.93;97102.38;5082634;28;20279;-45
2020/12/15 03:50:44;;;;;;;6.30;4.57;;;7.10;70.60;;;7.33;61.68;97109.63;5081560;28;20048;-46
2020/12/15 03:53:14;;;;;;;7.50;4.50;;;7.20;70.50;;;7.31;61.29;97091.28;5082199;28;20059;-45
2020/12/15 03:55:47;;;;;;;7.47;5.00;;;7.10;70.70;;;7.31;61.78;97093.94;5081744;28;20044;-46
2020/12/15 03:58:19;;;;;;;7.68;4.95;;;7.10;70.90;;;7.30;61.39;97106.31;5082305;28;20240;-45
2020/12/15 04:00:55;;;;;;;5.47;4.73;;;7.10;70.70;;;7.30;61.64;97092.25;5082578;28;20048;-49
2020/12/15 04:03:26;;;;;;;6.83;4.80;;;7.00;70.50;;;7.25;61.46;97091.88;5082020;28;20052;-46
2020/12/15 04:05:58;;;;;;;9.37;5.17;;;6.90;71.40;;;7.22;61.34;97100.13;5083011;28;20056;-45
2020/12/15 04:08:30;;;;;;;9.67;5.83;;;7.00;71.80;;;7.22;61.92;97100.13;5081944;28;20057;-44
2020/12/15 04:10:59;;;;;;;8.87;5.27;;;6.90;72.00;;;7.22;62.27;97108.91;5083904;28;20044;-45
2020/12/15 04:13:36;;;;;;;7.27;4.20;;;7.00;72.00;;;7.24;61.86;97106.94;5083074;28;20252;-46
2020/12/15 04:16:08;;;;;;;7.30;5.03;;;7.00;71.40;;;7.26;62.01;97107.63;5081654;28;20051;-46
2020/12/15 04:18:43;;;;;;;7.63;4.40;;;7.00;71.30;;;7.24;61.65;97114.06;5081837;28;20067;-46
2020/12/15 04:21:15;;;;;;;7.57;4.23;;;7.10;70.90;;;7.26;61.49;97096.19;5081832;28;20059;-46
2020/12/15 04:23:44;;;;;;;5.67;4.20;;;7.10;70.80;;;7.27;61.22;97088.09;5083347;28;20055;-46
2020/12/15 04:26:16;;;;;;;6.43;3.77;;;7.10;70.60;;;7.28;61.30;97092.41;5081241;28;20058;-45
2020/12/15 04:28:49;;;;;;;6.55;4.38;;;7.10;70.70;;;7.28;61.74;97096.88;5081953;28;20062;-45
2020/12/15 04:31:17;;;;;;;4.53;3.60;;;7.10;70.60;;;7.31;61.08;97107.16;5081512;28;20066;-45
2020/12/15 04:33:48;;;;;;;6.07;4.50;;;7.10;70.30;;;7.31;61.66;97109.81;5081591;28;20060;-49
2020/12/15 04:36:16;;;;;;;4.70;3.47;;;7.10;70.30;;;7.32;61.35;97119.41;5082567;28;20045;-45
2020/12/15 04:38:44;;;;;;;5.10;3.20;;;7.10;70.20;;;7.33;61.56;97125.53;5081359;28;20052;-49
2020/12/15 04:41:22;;;;;;;5.60;3.77;;;7.10;69.80;;;7.35;61.02;97121.75;5080778;28;20056;-44
2020/12/15 04:43:52;;;;;;;4.00;2.80;;;7.20;69.60;;;7.36;61.15;97123.41;5082598;28;20311;-46
2020/12/15 04:46:24;;;;;;;3.47;2.43;;;7.20;69.40;;;7.39;60.78;97120.47;5081424;28;20058;-44
2020/12/15 04:49:06;;;;;;;4.23;2.63;;;7.20;69.20;;;7.43;61.05;97121.81;5081358;28;20244;-45
2020/12/15 04:51:58;;;;;;;3.40;2.73;;;7.30;68.60;;;7.46;60.66;97116.22;5082766;28;20052;-44
2020/12/15 04:54:38;;;;;;;3.00;2.07;;;7.30;67.80;;;7.47;60.52;97112.56;5080889;28;20248;-45
2020/12/15 04:57:18;;;;;;;3.55;2.38;;;7.40;68.40;;;7.51;60.67;97112.28;5081027;28;20048;-45
2020/12/15 04:59:49;;;;;;;2.77;2.20;;;7.40;68.20;;;7.55;60.51;97108.31;5081053;28;20063;-45
2020/12/15 05:02:26;;;;;;;3.37;1.97;;;7.50;68.20;;;7.60;60.45;97108.66;5082438;28;20058;-46
2020/12/15 05:04:59;;;;;;;4.17;2.63;;;7.50;68.40;;;7.63;60.56;97100.44;5080607;28;20064;-45
2020/12/15 05:07:28;;;;;;;3.43;2.20;;;7.60;68.50;;;7.66;61.01;97100.94;5080984;28;20059;-44
2020/12/15 05:10:14;;;;;;;2.90;2.30;;;7.70;68.40;;;7.71;60.81;97089.06;5080821;28;20057;-46
2020/12/15 05:13:08;;;;;;;4.97;2.93;;;7.70;68.40;;;7.74;61.03;97094.06;5079548;28;20071;-45
2020/12/15 05:15:35;;;;;;;5.63;3.57;;;7.70;68.80;;;7.75;60.94;97087.75;5080425;28;20057;-45
2020/12/15 05:18:22;;;;;;;5.53;3.60;;;7.70;69.20;;;7.72;60.81;97080.94;5080731;28;20048;-47
2020/12/15 05:20:52;;;;;;;6.87;4.70;;;7.60;69.70;;;7.71;60.83;97075.81;5080661;28;20130;-46
2020/12/15 05:23:26;;;;;;;14.38;8.88;;;7.50;70.20;;;7.66;61.23;97084.22;5081947;28;20052;-48
2020/12/15 05:26:03;;;;;;;16.42;9.10;;;7.40;70.50;;;7.56;61.54;97089.63;5080609;28;20227;-47
2020/12/15 05:28:44;;;;;;;15.40;9.43;;;7.40;70.80;;;7.47;62.25;97093.22;5080679;28;20059;-45
2020/12/15 05:31:14;;;;;;;8.30;6.13;;;7.30;71.30;;;7.44;62.08;97094.34;5095621;22;20055;-47
2020/12/15 05:34:26;;;;;;;7.23;4.80;;;7.20;72.00;;;7.41;61.92;97092.00;5051619;28;20053;-46
2020/12/15 05:37:12;;;;;;;7.13;5.50;;;7.10;72.70;;;7.36;62.50;97090.81;5040921;28;20044;-45
2020/12/15 05:40:02;;;;;;;7.90;6.10;;;7.00;73.20;;;7.28;62.78;97089.75;5058588;28;20067;-47
2020/12/15 05:43:02;;;;;;;9.17;5.70;;;6.90;73.60;;;7.26;62.51;97097.03;5046564;28;20056;-48
2020/12/15 05:45:33;;;;;;;11.93;9.20;;;7.00;73.90;;;7.24;63.33;97091.03;5043745;28;20065;-44
2020/12/15 05:48:08;;;;;;;10.60;6.73;;;7.00;73.70;;;7.23;62.58;97105.28;5044116;28;20059;-46
2020/12/15 05:50:39;;;;;;;12.70;8.75;;;7.00;74.10;;;7.25;62.98;97098.03;5061906;28;20049;-46
2020/12/15 05:53:11;;;;;;;12.30;8.50;;;7.00;74.20;;;7.28;63.23;97116.22;5060829;28;20075;-44
2020/12/15 05:55:40;;;;;;;9.30;6.50;;;7.10;74.20;;;7.29;62.85;97109.97;5061778;28;20049;-46
2020/12/15 05:58:14;;;;;;;17.00;12.30;;;7.00;73.80;;;7.29;62.74;97109.97;5061635;28;20052;-46
2020/12/15 06:00:42;;;;;;;11.50;6.60;;;7.00;74.00;;;7.29;62.61;97107.31;5042525;28;20107;-46
2020/12/15 06:03:11;;;;;;;7.80;5.30;;;7.10;74.20;;;7.28;63.28;97110.13;5061186;28;20051;-45
2020/12/15 06:05:40;;;;;;;11.43;5.57;;;7.10;74.10;;;7.18;62.92;97112.03;5061486;28;20048;-45
2020/12/15 06:08:07;;;;;;;6.97;5.10;;;6.90;74.70;;;7.18;62.98;97101.44;5061722;28;20070;-45
2020/12/15 06:10:35;;;;;;;9.73;6.87;;;6.90;74.90;;;7.20;63.60;97102.94;5061227;28;20053;-45
2020/12/15 06:13:04;;;;;;;9.13;6.20;;;6.90;75.10;;;7.22;63.44;97106.25;5061610;28;20045;-44
2020/12/15 06:15:32;;;;;;;10.03;8.13;;;6.90;75.00;;;7.22;63.91;97122.16;5060999;28;20059;-46
2020/12/15 06:18:02;;;;;;;8.60;5.27;;;7.00;75.00;;;7.23;63.42;97123.81;5061159;28;20045;-46
2020/12/15 06:20:37;;;;;;;9.03;5.57;;;6.90;75.30;;;7.23;63.69;97115.03;5044305;28;20055;-46
2020/12/15 06:23:12;;;;;;;5.83;4.80;;;6.90;75.40;;;7.23;63.80;97113.22;5044237;28;20045;-45
2020/12/15 06:25:48;;;;;;;10.07;5.23;;;7.00;75.50;;;7.24;64.11;97106.13;5059963;28;20063;-47
2020/12/15 06:28:15;;;;;;;7.03;5.47;;;7.00;75.10;;;7.25;64.03;97116.56;5045195;28;20251;-46
2020/12/15 06:30:46;;;;;;;7.53;5.30;;;7.10;75.00;;;7.27;63.47;97113.75;5061560;28;20222;-45
2020/12/15 06:33:15;;;;;;;6.27;5.07;;;7.10;74.70;;;7.29;64.11;97120.56;5061507;28;20049;-46
2020/12/15 06:35:48;;;;;;;10.53;4.67;;;7.10;74.70;;;7.30;63.91;97127.50;5060853;28;20049;-48
2020/12/15 06:38:22;;;;;;;6.67;4.93;;;7.20;74.70;;;7.34;63.75;97122.72;5061917;28;20216;-47
2020/12/15 06:40:50;;;;;;;7.03;4.82;;;7.20;74.70;;;7.35;64.01;97121.75;5061443;28;20049;-46
2020/12/15 06:43:29;;;;;;;12.23;7.53;;;7.20;74.40;;;7.36;63.81;97123.41;5061314;28;20337;-46
2020/12/15 06:46:07;;;;;;;19.77;9.40;;;7.20;74.70;;;7.37;63.48;97124.25;5060514;28;20061;-45
2020/12/15 06:48:36;;;;;;;11.30;6.17;;;7.20;75.00;;;7.35;63.57;97126.19;5061259;28;20053;-45
2020/12/15 06:51:04;;;;;;;11.07;6.53;;;7.10;74.90;;;7.29;63.45;97120.56;5061435;28;20052;-48
2020/12/15 06:53:32;;;;;;;14.53;8.70;;;7.00;74.90;;;7.28;64.07;97118.06;5061218;28;20344;-45
2020/12/15 06:56:04;;;;;;;15.90;10.53;;;7.00;75.00;;;7.27;63.98;97122.53;5060144;28;20048;-44
2020/12/15 06:58:32;;;;;;;56.43;27.60;;;7.00;75.20;;;7.29;64.52;97132.97;5060940;28;20051;-47
2020/12/15 07:01:03;;;;;;;19.83;10.57;;;7.10;75.30;;;7.28;64.25;97120.69;5060064;28;20055;-47
2020/12/15 07:03:45;;;;;;;11.27;6.83;;;7.00;75.10;;;7.26;64.53;97118.19;5060911;28;20055;-47
2020/12/15 07:06:14;;;;;;;9.77;8.13;;;7.10;75.30;;;7.28;64.13;97118.06;5063898;28;20053;-44
2020/12/15 07:08:43;;;;;;;15.07;9.03;;;7.10;75.20;;;7.27;64.12;97117.22;5064129;28;20049;-47
2020/12/15 07:11:11;;;;;;;18.03;10.43;;;7.10;75.30;;;7.27;64.56;97113.75;5064157;28;20053;-43
2020/12/15 07:13:38;;;;;;;18.80;9.50;;;7.00;75.40;;;7.26;63.82;97118.19;5064416;28;20363;-45
2020/12/15 07:16:18;;;;;;;11.50;7.13;;;7.00;75.50;;;7.26;63.86;97114.72;5063907;28;20048;-47
2020/12/15 07:18:46;;;;;;;16.10;9.37;;;7.00;75.90;;;7.25;64.03;97126.28;5047000;28;20044;-44
2020/12/15 07:21:14;;;;;;;17.23;8.87;;;7.00;75.60;;;7.24;64.65;97122.81;5064452;28;20048;-45
2020/12/15 07:23:47;;;;;;;14.93;7.97;;;7.00;75.70;;;7.21;64.59;97109.91;5047555;28;20055;-44
2020/12/15 07:26:19;;;;;;;15.70;9.40;;;7.00;75.50;;;7.23;64.10;97123.81;5063926;28;20067;-44
2020/12/15 07:28:49;;;;;;;14.47;8.47;;;7.10;76.00;;;7.24;64.69;97128.13;5064495;28;20059;-44
2020/12/15 07:31:30;;;;;;;13.67;7.37;;;7.00;75.80;;;7.24;64.26;97124.66;5064171;28;20055;-44
2020/12/15 07:34:14;;;;;;;14.67;8.90;;;7.10;76.00;;;7.25;64.32;97139.53;5063323;28;20065;-47
2020/12/15 07:36:46;;;;;;;13.18;8.82;;;7.10;76.10;;;7.24;64.23;97144.00;5046385;28;20240;-46
2020/12/15 07:39:15;;;;;;;10.57;7.27;;;7.10;75.50;;;7.26;64.56;97147.31;5063846;28;20063;-44
2020/12/15 07:41:53;;;;;;;18.63;10.00;;;7.10;75.20;;;7.30;64.72;97145.22;5064088;28;20049;-45
2020/12/15 07:44:30;;;;;;;21.90;12.70;;;7.20;75.00;;;7.33;64.11;97146.72;5046246;28;20052;-47
2020/12/15 07:46:57;;;;;;;20.13;10.83;;;7.20;74.60;;;7.37;64.71;97145.44;5063466;28;20045;-48
2020/12/15 07:49:26;;;;;;;16.47;9.97;;;7.20;74.50;;;7.39;64.00;97146.13;5046550;28;20044;-44
2020/12/15 07:51:54;;;;;;;13.60;8.40;;;7.30;75.40;;;7.41;63.89;97152.09;5046399;28;20366;-47
2020/12/15 07:54:22;;;;;;;11.50;7.60;;;7.30;74.40;;;7.42;64.56;97148.44;5063920;28;20052;-44
2020/12/15 07:56:52;;;;;;;10.73;6.53;;;7.30;74.60;;;7.43;64.84;97143.00;5063157;28;20059;-44
2020/12/15 07:59:20;;;;;;;8.27;6.47;;;7.40;74.40;;;7.45;64.52;97151.63;5063562;28;20044;-44
2020/12/15 08:01:48;;;;;;;6.47;4.47;;;7.40;74.60;;;7.47;64.22;97149.66;5062829;28;20075;-44
2020/12/15 08:04:17;;;;;;;7.77;4.90;;;7.40;74.30;;;7.50;64.52;97143.22;5063054;28;20079;-43
2020/12/15 08:06:48;;;;;;;7.97;4.80;;;7.50;74.40;;;7.46;65.33;97144.50;5063275;28;20049;-47
2020/12/15 08:09:17;;;;;;;7.77;5.57;;;7.50;74.60;;;7.51;64.99;97146.72;5062251;28;20154;-46
2020/12/15 08:11:47;;;;;;;8.43;6.03;;;7.60;74.40;;;7.57;65.33;97157.50;5044642;28;20055;-44
2020/12/15 08:14:16;;;;;;;8.53;6.17;;;7.70;74.60;;;7.60;64.65;97159.00;5062475;28;20049;-43
2020/12/15 08:16:45;;;;;;;9.90;5.93;;;7.70;74.60;;;7.63;64.67;97153.41;5061839;28;20048;-44
2020/12/15 08:19:13;;;;;;;6.70;4.93;;;7.70;74.70;;;7.63;65.39;97156.06;5045600;28;20052;-43
2020/12/15 08:21:50;;;;;;;9.83;5.87;;;7.70;74.80;;;7.66;65.11;97159.25;5045974;28;20045;-44
2020/12/15 08:24:22;;;;;;;6.57;4.70;;;7.60;75.70;;;7.67;64.71;97175.97;5062674;28;20344;-46
2020/12/15 08:26:49;;;;;;;8.87;6.30;;;7.60;75.80;;;7.68;65.15;97169.69;5062737;28;20044;-44
2020/12/15 08:29:20;;;;;;;9.43;5.20;;;7.60;75.70;;;7.69;65.47;97174.81;5062961;28;20067;-46
2020/12/15 08:31:48;;;;;;;9.60;5.13;;;7.60;76.10;;;7.72;64.87;97175.50;5063023;28;20230;-44
2020/12/15 08:34:19;;;;;;;8.23;5.33;;;7.60;75.70;;;7.72;65.34;97179.00;5064199;28;20244;-45
2020/12/15 08:36:49;;;;;;;8.30;5.27;;;7.60;76.00;;;7.70;65.41;97180.97;5082139;28;20048;-44
2020/12/15 08:39:28;;;;;;;11.57;5.67;;;7.50;76.20;;;7.70;65.14;97180.97;5080430;28;20040;-44
2020/12/15 08:41:59;;;;;;;10.87;6.03;;;7.60;76.30;;;7.71;65.44;97177.31;5066182;28;20053;-46
2020/12/15 08:44:29;;;;;;;8.47;5.20;;;7.60;76.40;;;7.72;65.16;97178.16;5082300;28;20336;-44
2020/12/15 08:47:16;;;;;;;8.33;5.63;;;7.60;76.50;;;7.76;65.73;97182.16;5082403;28;20051;-45
2020/12/15 08:49:45;;;;;;;6.53;4.43;;;7.60;76.60;;;7.78;65.42;97178.38;5081917;28;20048;-45
2020/12/15 08:52:23;;;;;;;8.60;5.07;;;7.70;76.90;;;7.81;65.51;97179.88;5082595;28;20080;-45
2020/12/15 08:54:54;;;;;;;6.87;4.07;;;7.70;77.30;;;7.84;65.61;97185.69;5081661;28;20056;-46
2020/12/15 08:57:24;;;;;;;7.03;4.60;;;7.80;76.90;;;7.87;66.11;97185.38;5063839;28;20044;-47
2020/12/15 08:59:52;;;;;;;8.43;5.03;;;7.80;76.80;;;7.89;66.00;97194.03;5081448;28;20052;-46
2020/12/15 09:02:20;;;;;;;8.07;5.13;;;7.80;77.20;;;7.90;65.58;97184.25;5082455;28;20044;-45
2020/12/15 09:04:49;;;;;;;11.07;5.77;;;7.80;77.20;;;7.89;65.82;97207.28;5082004;28;20050;-45
2020/12/15 09:07:18;;;;;;;8.83;5.37;;;7.80;77.30;;;7.90;65.87;97208.09;5082424;28;20264;-46
2020/12/15 09:09:45;;;;;;;10.07;7.97;;;7.80;77.30;;;7.86;65.80;97199.63;5082222;28;20075;-45
2020/12/15 09:12:16;;;;;;;12.03;8.20;;;7.80;77.30;;;7.87;65.95;97206.59;5081612;28;20068;-48
2020/12/15 09:14:44;;;;;;;8.47;6.37;;;7.80;77.70;;;7.88;66.22;97210.06;5047957;28;20052;-46
2020/12/15 09:17:11;;;;;;;7.73;6.33;;;7.80;77.50;;;7.89;66.38;97207.28;5082266;28;20044;-46
2020/12/15 09:19:41;;;;;;;10.97;6.13;;;7.80;77.40;;;7.88;66.12;97204.78;5081899;28;20047;-45
2020/12/15 09:22:12;;;;;;;10.37;6.47;;;7.80;78.10;;;7.89;66.06;97214.41;5082214;28;20045;-45
2020/12/15 09:24:43;;;;;;;9.60;6.13;;;7.70;78.00;;;7.87;65.74;97211.91;5081435;28;20079;-45
2020/12/15 09:27:23;;;;;;;7.80;5.53;;;7.70;78.30;;;7.87;66.04;97209.25;5081448;28;20052;-45
2020/12/15 09:29:51;;;;;;;8.13;5.80;;;7.70;79.00;;;7.87;66.52;97206.59;5081037;28;20364;-45
2020/12/15 09:32:18;;;;;;;8.47;6.07;;;7.70;78.60;;;7.89;66.41;97209.09;5081728;28;20048;-46
2020/12/15 09:34:47;;;;;;;9.60;6.23;;;7.70;78.70;;;7.88;66.31;97204.78;5081715;28;20332;-45
2020/12/15 09:37:14;;;;;;;9.00;7.73;;;7.70;78.60;;;7.85;66.42;97210.38;5081870;28;20054;-45
2020/12/15 09:39:42;;;;;;;14.83;11.67;;;7.80;78.50;;;7.86;66.30;97223.47;5080477;28;20044;-45
2020/12/15 09:42:23;;;;;;;12.53;9.17;;;7.80;78.70;;;7.89;66.31;97219.69;5081103;28;20044;-48
2020/12/15 09:44:51;;;;;;;15.73;8.77;;;7.80;78.70;;;7.91;66.55;97217.72;5081345;28;20048;-45
2020/12/15 09:47:19;;;;;;;9.53;7.77;;;7.80;78.60;;;7.91;66.79;97207.13;5080734;28;20063;-48
2020/12/15 09:49:46;;;;;;;9.53;6.60;;;7.80;78.40;;;7.92;66.18;97197.34;5081587;28;20118;-45
2020/12/15 09:52:13;;;;;;;10.67;5.90;;;7.80;78.00;;;7.95;66.55;97197.88;5064267;28;20352;-45
2020/12/15 09:54:41;;;;;;;12.17;5.50;;;7.90;77.80;;;7.97;65.95;97200.34;5081617;28;20048;-46
2020/12/15 09:57:09;;;;;;;11.70;5.43;;;8.00;77.30;;;8.01;66.18;97199.06;5080378;28;20055;-45
2020/12/15 09:59:38;;;;;;;8.60;4.67;;;8.00;76.80;;;8.06;65.92;97197.63;5081760;28;20040;-45
2020/12/15 10:02:06;;;;;;;6.60;3.90;;;8.10;76.60;;;8.10;66.04;97198.09;5081797;28;20045;-46
2020/12/15 10:04:34;;;;;;;6.67;4.93;;;8.10;76.40;;;8.14;66.11;97190.69;5081105;28;20054;-45
2020/12/15 10:07:02;;;;;;;8.77;5.67;;;8.20;76.20;;;8.19;65.68;97196.34;5081389;28;20050;-45
2020/12/15 10:09:30;;;;;;;7.27;5.03;;;8.20;76.00;;;8.22;66.00;97196.03;5080288;28;20070;-46
2020/12/15 10:11:57;;;;;;;6.70;3.93;;;8.20;76.20;;;8.24;65.90;97197.53;5079940;28;20122;-46
2020/12/15 10:14:25;;;;;;;5.03;4.50;;;8.30;76.10;;;8.26;65.97;97195.56;5078625;28;20224;-45
2020/12/15 10:16:52;;;;;;;6.90;4.83;;;8.30;75.90;;;8.30;66.06;97198.75;5081115;28;20213;-47
2020/12/15 10:19:20;;;;;;;7.50;4.80;;;8.40;75.70;;;8.33;65.92;97202.88;5081627;28;20048;-46
2020/12/15 10:21:52;;;;;;;7.43;5.10;;;8.40;75.30;;;8.34;65.87;97205.38;5081572;28;20045;-45
2020/12/15 10:24:19;;;;;;;7.23;4.93;;;8.40;75.20;;;8.35;65.31;97201.72;5081586;28;20043;-46
2020/12/15 10:26:47;;;;;;;7.13;4.40;;;8.40;75.30;;;8.38;65.63;97198.78;5081233;28;20055;-46
2020/12/15 10:29:14;;;;;;;9.30;5.20;;;8.50;75.40;;;8.41;65.85;97201.16;5081514;28;20046;-45
2020/12/15 10:31:46;;;;;;;9.87;5.47;;;8.50;75.10;;;8.47;65.60;97202.31;5081323;28;20058;-46
2020/12/15 10:34:14;;;;;;;7.17;4.70;;;8.50;75.20;;;8.51;65.61;97194.88;5081525;28;20051;-48
2020/12/15 10:36:41;;;;;;;8.10;5.10;;;8.60;75.00;;;8.54;65.25;97197.22;5081075;28;20045;-48
2020/12/15 10:39:09;;;;;;;8.13;4.57;;;8.60;75.00;;;8.59;65.50;97194.94;5081505;28;20052;-46
2020/12/15 10:41:39;;;;;;;7.53;4.70;;;8.60;75.00;;;8.61;65.50;97193.78;5085073;28;20056;-44
2020/12/15 10:44:16;;;;;;;6.23;3.70;;;8.70;75.00;;;8.65;65.26;97195.13;5085110;28;20041;-46
2020/12/15 10:46:45;;;;;;;9.10;4.90;;;8.70;74.90;;;8.68;65.26;97191.28;5084880;28;20060;-44
2020/12/15 10:49:16;;;;;;;13.97;3.87;;;8.80;74.70;;;8.73;65.26;97185.53;5084358;28;20063;-44